Login
Access
Login with your mtb-forum.it nickname and password.


You do not have an account? Sign up here for free

maurizio1259

Last training unit 01/05/2020
0
Followers
6 648 Km
itineraries
57 281 m
of total vertical gain
271
hours of riding
24.09 Km/h
average speed
125
average HR


01/05/2020 Show to everybody activity_5582643_2020-05-01_08_52_19 40.56 Km 1480 m 02:30:44 16.14 Km\h Wilier Triestina Cento1
30/04/2020 Show to everybody activity_5565545_2020-04-30_14_25_12 42.24 Km 1069 m 01:56:21 21.78 Km\h Wilier Triestina Cento1
29/04/2020 Show to everybody activity_5545259_2020-04-29_16_04_40 16.72 Km 76 m 00:33:09 30.26 Km\h Wilier Triestina Cento1
29/04/2020 Show to everybody activity_5544462_2020-04-29_14_22_32 31.86 Km 1132 m 01:32:06 20.76 Km\h Wilier Triestina Cento1
28/04/2020 Show to everybody activity_5523992_2020-04-28_14_39_00 31.21 Km 1429 m 01:37:09 19.28 Km\h Wilier Triestina Cento1
27/04/2020 Show to everybody activity_5503817_2020-04-27_09_58_00 19.5 Km 747 m 01:27:50 13.32 Km\h Wilier Triestina Cento1
25/04/2020 Show to everybody activity_5455291_2020-04-25_08_38_00 18.03 Km 885 m 01:12:05 15.01 Km\h Wilier Triestina Cento1
25/04/2020 Show to everybody activity_5458891_2020-04-25_11_05_07 5.43 Km 414 m 00:41:14 7.9 Km\h Wilier Triestina Cento1
25/04/2020 Show to everybody activity_5457486_2020-04-25_10_30_27 9.33 Km 659 m 00:27:39 20.26 Km\h Wilier Triestina Cento1
20/04/2020 Show to everybody activity_5358965_2020-04-20_08_24_25 50.83 Km 248 m 01:51:29 27.36 Km\h Wilier Triestina Cento1
19/04/2020 Show to everybody albula_1_rouvy_le_salite_tour_de_suisse_14_25 30.36 Km 1540 m 02:26:47 12.41 Km\h Wilier Triestina Cento1
17/04/2020 Show to everybody zwift_innsbruck_ 10.29 Km 65 m 00:18:30 33.37 Km\h Wilier Triestina Cento1
17/04/2020 Show to everybody calanca_valley_rouvy_le_salite_tour_de_suisse_13_25 18.38 Km 801 m 01:16:03 14.5 Km\h Wilier Triestina Cento1
16/04/2020 Show to everybody dombresson_chasseral_rouvy_le_salite_tour_de_suisse_12_25 16.06 Km 822 m 01:07:51 14.21 Km\h Wilier Triestina Cento1
16/04/2020 Show to everybody albula_1 10.4 Km 269 m 00:31:59 19.51 Km\h Wilier Triestina Cento1
14/04/2020 Show to everybody activity_5244816_2020-04-14_18_33_00 14.28 Km 775 m 00:56:21 15.21 Km\h Wilier Triestina Cento1
12/04/2020 Show to everybody sion_crans_montana_rouvy_le_salite_tour_de_suisse_10_25_ 25.27 Km 1037 m 01:33:02 16.3 Km\h Wilier Triestina Cento1
12/04/2020 Show to everybody zwift_london_ 10.08 Km 191 m 00:22:47 26.55 Km\h Wilier Triestina Cento1
11/04/2020 Show to everybody giubiasco_coccio_rouvy_tour_de_suisse_9_25_ 23.51 Km 696 m 01:13:27 19.21 Km\h Wilier Triestina Cento1
09/04/2020 Show to everybody Allenamento 09-04-2020 alle 06:41:23 29.68 Km 1836 m 03:10:47 9.33 Km\h Wilier Triestina Cento1
08/04/2020 Show to everybody Allenamento 08-04-2020 alle 06:09:02 17.92 Km 1264 m 01:49:55 9.78 Km\h Wilier Triestina Cento1
07/04/2020 Show to everybody innertkirchen_rosenlaui_rouvy_tour_de_suisse_4_25 13.25 Km 805 m 01:09:40 11.41 Km\h Wilier Triestina Cento1
07/04/2020 Show to everybody Allenamento 07-04-2020 alle 07:41:52 14.31 Km 966 m 01:22:34 10.4 Km\h Wilier Triestina Cento1
05/04/2020 Show to everybody lipno_lake_challenge_specialized_finito_rouvy_ 39.57 Km 532 m 01:34:46 25.05 Km\h Wilier Triestina Cento1
03/04/2020 Show to everybody Allenamento 03-04-2020 alle 05:59:00 31.67 Km 1713 m 02:34:41 12.28 Km\h Wilier Triestina Cento1
02/04/2020 Show to everybody Allenamento 02-04-2020 alle 06:29:33 30.08 Km 1357 m 02:03:14 14.65 Km\h Wilier Triestina Cento1
01/04/2020 Show to everybody Allenamento 01-04-2020 alle 07:12:09 21.4 Km 876 m 01:29:28 14.35 Km\h Wilier Triestina Cento1
01/04/2020 Show to everybody Allenamento 01-04-2020 alle 06:02:11 19.61 Km 564 m 01:02:20 18.88 Km\h Wilier Triestina Cento1
31/03/2020 Show to everybody Allenamento 31-03-2020 alle 07:24:44 35.07 Km 753 m 01:43:59 20.23 Km\h Wilier Triestina Cento1
31/03/2020 Show to everybody Allenamento 31-03-2020 alle 06:02:00 20.62 Km 567 m 01:08:32 18.06 Km\h Wilier Triestina Cento1
29/03/2020 Show to everybody Allenamento 29-03-2020 alle 13:00:00 10.09 Km 686 m 00:56:20 10.74 Km\h Wilier Triestina Cento1
26/03/2020 Show to everybody Allenamento 26-03-2020 alle 19:19:27+00:00 55.13 Km 1341 m 02:05:40 26.32 Km\h Wilier Triestina Cento1
15/03/2020 Show to everybody Oggi 51.76 Km 838 m 02:13:38 23.24 Km\h Wilier Triestina Cento1
11/03/2020 Show to everybody Rulli 7.47 Km 210 m 00:25:35 17.51 Km\h Wilier Triestina Cento1
11/03/2020 Show to everybody rulli 8.45 Km 563 m 00:42:00 12.07 Km\h Wilier Triestina Cento1
11/03/2020 Show to everybody Boh 4.23 Km 5 m 00:09:06 27.87 Km\h Wilier Triestina Cento1
11/03/2020 Show to everybody Rulli 7.81 Km 388 m 00:35:39 13.14 Km\h Wilier Triestina Cento1
11/03/2020 Show to everybody Boh 2.2 Km 30 m 00:05:01 26.33 Km\h Wilier Triestina Cento1
11/03/2020 Show to everybody activity_4729931_2020-03-11_10_31_29 7.47 Km 210 m 00:25:35 17.51 Km\h Wilier Triestina Cento1
29/02/2020 Show to everybody viareggio_sarzana_ritorno_ 38.07 Km 60 m 01:22:16 27.77 Km\h Wilier Triestina Cento1
29/02/2020 Show to everybody viareggio_sarzana_ritorno_ 38.07 Km 60 m 01:22:16 27.77 Km\h Wilier Triestina Cento1
27/02/2020 Show to everybody Rulli 35.38 Km 43 m 01:17:40 27.33 Km\h Wilier Triestina Cento1
27/02/2020 Show to everybody marinadimassa_sarzana_continuazione_trainingpeaks_x_rientrare_a_casa_ 23.16 Km 50 m 00:51:28 27 Km\h Wilier Triestina Cento1
26/02/2020 Show to everybody Rulli 66.06 Km 106 m 02:21:50 27.94 Km\h Wilier Triestina Cento1
26/02/2020 Show to everybody giro_mattutino_-2 65.89 Km 113 m 02:26:02 27.07 Km\h Wilier Triestina Cento1
24/02/2020 Show to everybody giro_mattutino_ 59.35 Km 87 m 02:06:19 28.19 Km\h Wilier Triestina Cento1
23/02/2020 Show to everybody domenica_ 43.72 Km 80 m 01:42:17 25.65 Km\h Wilier Triestina Cento1
19/02/2020 Show to everybody watopia-7 20.74 Km 781 m 01:20:31 15.46 Km\h Wilier Triestina Cento1
17/02/2020 Show to everybody activity_4559169417 2.32 Km 1 m 00:06:09 22.68 Km\h Wilier Triestina Cento1
17/02/2020 Show to everybody activity_4559155990 3.05 Km 12 m 00:08:37 21.23 Km\h Wilier Triestina Cento1
17/02/2020 Show to everybody activity_4559320235 40.14 Km 92 m 01:16:06 31.65 Km\h Wilier Triestina Cento1
17/02/2020 Show to everybody tbr_knights_of_suburbia_d_ 40.23 Km 92 m 01:16:06 31.72 Km\h Wilier Triestina Cento1
17/02/2020 Show to everybody richmond-3 3.06 Km 12 m 00:08:37 21.28 Km\h Wilier Triestina Cento1
16/02/2020 Show to everybody activity_4555398046 72.03 Km 32 m 02:16:56 31.56 Km\h Wilier Triestina Cento1
16/02/2020 Show to everybody activity_4555130353 6.03 Km 12 m 00:13:40 26.46 Km\h Wilier Triestina Cento1
14/02/2020 Show to everybody the_herd_s_friday_kibbitz_chinwag_and_ride_d_ 40.1 Km 194 m 01:19:03 30.44 Km\h Wilier Triestina Cento1
14/02/2020 Show to everybody activity_4549012226 39.98 Km 194 m 01:19:03 30.35 Km\h Wilier Triestina Cento1
14/02/2020 Show to everybody activity_4548759565 2.01 Km 50 m 00:05:13 23.15 Km\h Wilier Triestina Cento1
12/02/2020 Show to everybody activity_4542211756 21.07 Km 48 m 00:40:27 31.25 Km\h Wilier Triestina Cento1
12/02/2020 Show to everybody london-2 15.05 Km 219 m 00:33:16 27.14 Km\h Wilier Triestina Cento1
12/02/2020 Show to everybody london-3 2.73 Km 18 m 00:06:20 25.9 Km\h Wilier Triestina Cento1
12/02/2020 Show to everybody watopia-6 21.11 Km 48 m 00:40:27 31.32 Km\h Wilier Triestina Cento1
08/02/2020 Show to everybody watopia-5 11.04 Km 30 m 00:22:26 29.54 Km\h Wilier Triestina Cento1
08/02/2020 Show to everybody andre_greipel_fight_als_mega_ride_e_ 40.26 Km 107 m 01:06:57 36.08 Km\h Wilier Triestina Cento1
07/02/2020 Show to everybody richmond-2 2.04 Km 14 m 00:07:48 15.69 Km\h Wilier Triestina Cento1
04/02/2020 Show to everybody nyc-4 8.08 Km 171 m 00:21:38 22.41 Km\h Wilier Triestina Cento1
04/02/2020 Show to everybody zwift_time_trial_tuesday_tempus_fugit_e_ 21.14 Km 8 m 00:40:57 30.97 Km\h Wilier Triestina Cento1
03/02/2020 Show to everybody 3r_volcano_circuit_sprint_flat_race_1_lap_6_6km_4_1mi_20m_c_ 31.17 Km 128 m 01:00:15 31.04 Km\h Wilier Triestina Cento1
02/02/2020 Show to everybody richmond 20.53 Km 250 m 00:47:23 26 Km\h Wilier Triestina Cento1
29/01/2020 Show to everybody sas_out_and_back_c_ 50.14 Km 309 m 01:31:29 32.89 Km\h Wilier Triestina Cento1
29/01/2020 Show to everybody nyc-3 11.07 Km 98 m 00:23:22 28.41 Km\h Wilier Triestina Cento1
29/01/2020 Show to everybody nyc-3 11.07 Km 98 m 00:23:22 28.41 Km\h Wilier Triestina Cento1
27/01/2020 Show to everybody yorkshire-3 15.09 Km 264 m 00:39:43 22.8 Km\h Wilier Triestina Cento1
26/01/2020 Show to everybody nyc-2 21.28 Km 285 m 01:06:56 19.08 Km\h Wilier Triestina Cento1
25/01/2020 Show to everybody nyc 8.14 Km 64 m 00:20:05 24.3 Km\h Wilier Triestina Cento1
25/01/2020 Show to everybody nyc 8.14 Km 64 m 00:20:05 24.3 Km\h Wilier Triestina Cento1
20/01/2020 Show to everybody innsbruck-3 32.06 Km 758 m 01:11:21 26.96 Km\h Wilier Triestina Cento1
19/01/2020 Show to everybody innsbruck-2 34.12 Km 255 m 01:02:20 32.85 Km\h Wilier Triestina Cento1
19/01/2020 Show to everybody innsbruck 4.07 Km 71 m 00:16:38 14.69 Km\h Wilier Triestina Cento1
19/01/2020 Show to everybody brt_breakfast_club_c_ 5.21 Km 49 m 00:11:46 26.57 Km\h Wilier Triestina Cento1
15/01/2020 Show to everybody coffee_with_hot_espresso_presented_by_team_odz_c_ 41.2 Km 160 m 01:10:29 35.07 Km\h Wilier Triestina Cento1
15/01/2020 Show to everybody london 5.81 Km 22 m 00:10:49 32.2 Km\h Wilier Triestina Cento1
13/01/2020 Show to everybody yorkshire-2 17 Km 347 m 00:38:23 26.58 Km\h Wilier Triestina Cento1
13/01/2020 Show to everybody yorkshire 4.25 Km 77 m 00:10:38 23.98 Km\h Wilier Triestina Cento1
12/01/2020 Show to everybody watopia-4 11.04 Km 49 m 00:22:01 30.08 Km\h Wilier Triestina Cento1
12/01/2020 Show to everybody 3r_figure_8_hilly_race_1_lap_29_2km_18_1m_234m_c_ 30.37 Km 231 m 01:01:02 29.86 Km\h Wilier Triestina Cento1
08/01/2020 Show to everybody watopia-3 13.12 Km 44 m 00:30:40 25.67 Km\h Wilier Triestina Cento1
08/01/2020 Show to everybody watopia-2 21.24 Km 571 m 01:21:38 15.61 Km\h Wilier Triestina Cento1
05/01/2020 Show to everybody yorkshire_antipasto_ 3.27 Km 42 m 00:11:16 17.43 Km\h Wilier Triestina Cento1
05/01/2020 Show to everybody zwift_bambino_fondo 55.42 Km 536 m 02:37:42 21.08 Km\h Wilier Triestina Cento1
03/01/2020 Show to everybody kiss_at_race_pacific_am_d_ 43.93 Km 178 m 01:15:18 35 Km\h Wilier Triestina Cento1
03/01/2020 Show to everybody watopia 15.17 Km 57 m 00:29:51 30.49 Km\h Wilier Triestina Cento1
18/07/2019 Show to everybody giro_pomeridiano_post_lavoro_ 41.9 Km 197 m 01:33:21 26.93 Km\h Wilier Triestina Cento1
06/07/2019 Show to everybody bracco_bracchetto_solo_soletto_ 99.7 Km 1229 m 04:20:39 22.95 Km\h Wilier Triestina Cento1
30/06/2019 Show to everybody all_alba_29_gradi_ 65.86 Km 509 m 02:52:03 22.97 Km\h Wilier Triestina Cento1
11/05/2019 Show to everybody tds_agl_-7 125.31 Km 1187 m 04:39:57 26.86 Km\h Wilier Triestina Cento1
04/05/2019 Show to everybody giretto_con_i_ragazzi_del_rudy_project_ 60.41 Km 794 m 02:53:12 20.93 Km\h Wilier Triestina Cento1
22/04/2019 Show to everybody giro_post_lavoro_buona_pasquetta_lecolchallenge 60.79 Km 607 m 02:22:17 25.64 Km\h Wilier Triestina Cento1
20/04/2019 Show to everybody giro_mattutino_lecolchallenge 73.61 Km 929 m 03:17:54 22.32 Km\h Wilier Triestina Cento1
16/04/2019 Show to everybody sarzana_vezzanoligure_padivarma_vezzanoligure_sarzana_lecolchallenge 73.31 Km 835 m 02:59:39 24.48 Km\h Wilier Triestina Cento1
15/04/2019 Show to everybody giro_mattutino_-17 90.31 Km 122 m 03:15:31 27.72 Km\h Wilier Triestina Cento1
12/04/2019 Show to everybody giro_mattutino_con_piccolo_imprevisto_sul_percorso_ 60.81 Km 96 m 02:10:09 28.03 Km\h Wilier Triestina Cento1
12/04/2019 Show to everybody giro_del_sabato_con_i_ragazzi_dei_pratidivezzano 101.24 Km 181 m 03:34:00 28.38 Km\h Wilier Triestina Cento1
09/04/2019 Show to everybody giro_mattutino_con_i_ragazzi_dei_pratidivezzano_ 95.56 Km 263 m 03:25:50 27.86 Km\h Wilier Triestina Cento1
01/04/2019 Show to everybody giro_mattutino_-16 75.48 Km 125 m 02:50:17 26.6 Km\h Wilier Triestina Cento1
30/03/2019 Show to everybody giro_mattutino_-18 75.34 Km 238 m 02:54:18 25.94 Km\h Wilier Triestina Cento1
28/03/2019 Show to everybody _spolverina_e_a_c_ 70.04 Km 933 m 03:22:16 20.78 Km\h Wilier Triestina Cento1
27/03/2019 Show to everybody bracchetto_anda_e_rianda_ 80.2 Km 680 m 03:05:55 25.88 Km\h Wilier Triestina Cento1
25/03/2019 Show to everybody giro_mattutino_-15 66.42 Km 233 m 02:29:23 26.68 Km\h Wilier Triestina Cento1
24/03/2019 Show to everybody giro_mattutino_-14 101.47 Km 209 m 03:38:08 27.91 Km\h Wilier Triestina Cento1
23/03/2019 Show to everybody giro_mattutino_-13 47.92 Km 649 m 02:13:15 21.58 Km\h Wilier Triestina Cento1
22/03/2019 Show to everybody giro_mattutino_-12 61.57 Km 110 m 02:09:05 28.62 Km\h Wilier Triestina Cento1
20/03/2019 Show to everybody giro_mattutino_-11 62.13 Km 99 m 02:17:35 27.09 Km\h Wilier Triestina Cento1
16/03/2019 Show to everybody giro_mattutino_all_alba_ 80.17 Km 580 m 02:59:57 26.73 Km\h Wilier Triestina Cento1
04/02/2019 Show to everybody giro_mattutino_-2 86.97 Km 87 m 03:09:06 27.6 Km\h Wilier Triestina Cento1
03/02/2019 Show to everybody giro_mattutino_ 60.89 Km 74 m 01:59:54 30.47 Km\h Wilier Triestina Cento1
29/01/2019 Show to everybody Allenamento 29-01-2019 alle 12:45:14 70.38 Km 89 m 02:27:09 28.7 Km\h Wilier Triestina Cento1
26/01/2019 Show to everybody sarzana_santostefanomagra_albianomagra_ceparana_pian_di_follo_pianabattola_piano_madrignano_ceparana_bottagna_carozzo_vezzano_ligure_fornola_ressora_sarzana_ 20.75 Km 153 m 00:44:59 27.68 Km\h Wilier Triestina Cento1
25/01/2019 Show to everybody Trenata sino a Viareggio...... 84.22 Km 189 m 02:52:48 29.24 Km\h Wilier Triestina Cento1
22/01/2019 Show to everybody giro_mattutino_-2 62.7 Km 109 m 02:12:25 28.41 Km\h Wilier Triestina Cento1
21/01/2019 Show to everybody al_forte_e_a_casa_ 64.18 Km 88 m 02:31:31 25.42 Km\h Wilier Triestina Cento1
20/01/2019 Show to everybody girino_domenicale_ 84.25 Km 125 m 03:08:13 26.86 Km\h Wilier Triestina Cento1
19/01/2019 Show to everybody giretto_dell_ora_di_pranzo_ 70.51 Km 97 m 02:32:39 27.71 Km\h Wilier Triestina Cento1
16/01/2019 Show to everybody Giretto al tiepido sole della Versilia. 62.64 Km 96 m 02:16:44 27.49 Km\h Wilier Triestina Cento1
15/01/2019 Show to everybody SarzanaViareggioMarinadiLevanteRomitoMagraSarzana 101.34 Km 76 m 03:42:00 27.39 Km\h Wilier Triestina Cento1
13/01/2019 Show to everybody Giro pomeridiano , dopo la Messa. :)) 55.28 Km 333 m 02:01:07 27.38 Km\h Wilier Triestina Cento1
10/01/2019 Show to everybody Giro mattutino 75.61 Km 105 m 02:55:05 25.91 Km\h Wilier Triestina Cento1
06/01/2019 Show to everybody buona_befana_ 71.58 Km 88 m 02:50:22 25.21 Km\h Wilier Triestina Cento1
04/01/2019 Show to everybody giro_mattutino-2 63.62 Km 108 m 02:22:41 26.75 Km\h Wilier Triestina Cento1
03/01/2019 Show to everybody Allenamento 03-01-2019 alle 07:44:53 82.21 Km 76 m 03:06:15 26.48 Km\h Wilier Triestina Cento1
02/01/2019 Show to everybody Sarzana Ciclismo 2/31 61.54 Km 107 m 02:30:56 24.46 Km\h Wilier Triestina Cento1
01/01/2019 Show to everybody buon_2019_ 71.89 Km 84 m 02:39:31 27.04 Km\h Wilier Triestina Cento1
30/12/2018 Show to everybody auguri_di_buon_fine_2018_a_tutti_e_ 86.22 Km 125 m 03:07:30 27.59 Km\h Wilier Triestina Cento1
26/12/2018 Show to everybody buon_santostefano 67.43 Km 100 m 02:32:53 26.46 Km\h Wilier Triestina Cento1
24/12/2018 Show to everybody auguri_di_buon_natale_a_tutti_e_tutte_ 55.14 Km 148 m 02:02:40 26.97 Km\h Wilier Triestina Cento1
18/12/2018 Show to everybody giro_mattutino_ 75.64 Km 103 m 02:49:11 26.82 Km\h Wilier Triestina Cento1
15/12/2018 Show to everybody sarzana_marinella_romitomagra_boccadimagra_cappuccini_marinadicarrara_turanoesselunga_sarzana_ 55.86 Km 233 m 02:12:40 25.26 Km\h Wilier Triestina Cento1
14/12/2018 Show to everybody Giro del mattino ino ino.... 65.45 Km 102 m 02:32:41 25.72 Km\h Wilier Triestina Cento1
12/12/2018 Show to everybody giro_mattutino_con_un_bel_freschino_ino_ 45.83 Km 99 m 01:43:46 26.5 Km\h Wilier Triestina Cento1
09/12/2018 Show to everybody piove_nonpiove_nonvado_vado 81.38 Km 79 m 03:11:32 25.49 Km\h Wilier Triestina Cento1
07/12/2018 Show to everybody era_meglio_stare_a_casa_ 24.21 Km 117 m 01:51:31 13.03 Km\h Wilier Triestina Cento1
04/12/2018 Show to everybody Giretto veloce..... 45.55 Km 56 m 01:41:08 27.02 Km\h Wilier Triestina Cento1
02/12/2018 Show to everybody Sarzana FortedeiMarmi e a casa... 60.65 Km 150 m 02:18:06 26.35 Km\h Wilier Triestina Cento1
16/11/2018 Show to everybody Giretto mattiniero in Versilia. 60.68 Km 83 m 02:13:12 27.33 Km\h Wilier Triestina Cento1
10/11/2018 Show to everybody Giretto all`ora di pranzo. 38.89 Km 140 m 01:30:13 25.86 Km\h Wilier Triestina Cento1
08/11/2018 Show to everybody Giro all`ora di pranzo. 43.16 Km 333 m 01:55:13 22.48 Km\h Wilier Triestina Cento1
06/11/2018 Show to everybody Sarzana Guercio Bellavista Pugliola Baccano Pitelli Arcola RomitoMagra e a casa. 30.95 Km 292 m 01:22:08 22.61 Km\h Wilier Triestina Cento1
01/11/2018 Show to everybody sarzana fortedeimarmi sarzana 60.56 Km 83 m 02:13:21 27.25 Km\h Wilier Triestina Cento1
25/10/2018 Show to everybody SarzanaMarinadiCarraraViaAureliaSarzana 35.93 Km 114 m 01:19:56 26.97 Km\h Wilier Triestina Cento1
24/10/2018 Show to everybody SarzanaMarinadiPietrasantaSarzana 65.65 Km 206 m 02:31:25 26.01 Km\h Wilier Triestina Cento1
23/10/2018 Show to everybody SarzanaFortedeiMarmiRomitoMagraSarzana 61.53 Km 179 m 02:20:09 26.34 Km\h Wilier Triestina Cento1
14/10/2018 Show to everybody sarzanas_stefanomagrapadivarmapiandifolloceparanas_stefanomagrasarzana 51.4 Km 311 m 02:04:35 24.75 Km\h Wilier Triestina Cento1
12/10/2018 Show to everybody sarzana_marinadimassa_sarzana_2 46 Km 196 m 01:46:08 26 Km\h Wilier Triestina Cento1
06/10/2018 Show to everybody giro_pomeridiano_scansagoccie_ 26.53 Km 148 m 00:57:55 27.48 Km\h Wilier Triestina Cento1
03/10/2018 Show to everybody girino_del_pomeriggio_mannaggia_oggi_il_5_ottobre_e_non_il_3_ 25.27 Km 129 m 00:56:48 26.69 Km\h Wilier Triestina Cento1
03/10/2018 Show to everybody giro_mangiaebevi_ 61.47 Km 268 m 02:26:13 25.23 Km\h Wilier Triestina Cento1
02/10/2018 Show to everybody Allenamento 02-10-2018 alle 10:18:11 49.93 Km 137 m 01:59:04 25.16 Km\h Wilier Triestina Cento1
30/09/2018 Show to everybody Giro mattiniero 34.24 Km 115 m 01:26:37 23.72 Km\h Wilier Triestina Cento1
29/09/2018 Show to everybody Allenamento 29-09-2018 alle 14:45:21 38.13 Km 89 m 01:32:00 24.87 Km\h Wilier Triestina Cento1
26/09/2018 Show to everybody Allenamento 26-09-2018 alle 14:57:05 22.86 Km 101 m 00:54:01 25.39 Km\h Wilier Triestina Cento1
27/05/2012 Show to everybody giro_mattutino-3 89.43 Km 1081 m 03:06:42 28.74 Km\h Wilier Triestina Cento1
18/05/2010 Show to everybody giro_mattutino-2 61.43 Km 1495 m 04:19:54 14.18 Km\h Wilier Triestina Cento1
30/11/1999 Show to everybody virtualtraining_route_32109 12.5 Km 0 m 00:00:00 0 Km\h Wilier Triestina Cento1

Show previous years trainings
This user's bikes.
Wilier Triestina Cento1 154 6292.12 Km 55787 m 257:43:57 24.01 Km/h

0 points
Kilometers
0
Vertical gain
0
Rank:764

Watch ranking »

 

Bike name

Delete this bike?

Now you follow this users and you can compare your trainings

If you stop following this users you will not be able to compare your trainings with his


bdc-forum.it | 2012-2020 Training Camp v.1.0.15